Time;durP1;ratioP1;P1;durP2;ratioP2;P2;SDS_P1;SDS_P2;PMS_P1;PMS_P2;Temp;Humidity;BMP_temperature;BMP_pressure;BME280_temperature;BME280_humidity;BME280_pressure;Samples;Min_cycle;Max_cycle;Signal;HPM_P1;HPM_P2
2021/04/12 00:00:59;;;;;;;;;;;;;;;-0.46;100.00;99740.84;5031918;28;20309;-78
2021/04/12 00:03:30;;;;;;;;;;;;;;;-0.61;100.00;99744.19;5032019;28;19925;-78
2021/04/12 00:05:57;;;;;;;;;;;;;;;-0.45;100.00;99750.69;5031833;28;19933;-78
2021/04/12 00:12:04;;;;;;;;;;;;;;;-0.20;100.00;99738.72;5021844;28;19996;-78
2021/04/12 00:14:37;;;;;;;;;;;;;;;-0.55;100.00;99753.84;5031483;28;19940;-78
2021/04/12 00:17:07;;;;;;;;;;;;;;;-0.62;100.00;99761.81;5031826;28;20019;-78
2021/04/12 00:19:34;;;;;;;;;;;;;;;-0.75;100.00;99751.88;5031542;28;19932;-78
2021/04/12 00:22:06;;;;;;;;;;;;;;;-0.70;100.00;99757.19;5031762;28;20546;-78
2021/04/12 00:24:35;;;;;;;;;;;;;;;-0.69;100.00;99756.84;5031557;28;19925;-78
2021/04/12 00:27:07;;;;;;;;;;;;;;;-0.64;100.00;99759.41;5031487;28;20010;-78
2021/04/12 00:29:37;;;;;;;;;;;;;;;-0.64;100.00;99758.59;5031428;28;19967;-78
2021/04/12 00:32:22;;;;;;;;;;;;;;;-0.69;100.00;99764.25;5031971;28;19932;-78
2021/04/12 00:34:53;;;;;;;;;;;;;;;-0.77;100.00;99762.38;5050155;28;19931;-78
2021/04/12 00:37:29;;;;;;;;;;;;;;;-1.03;100.00;99761.72;5053792;28;19928;-78
2021/04/12 00:40:16;;;;;;;;;;;;;;;-1.17;100.00;99755.66;5053545;28;20361;-78
2021/04/12 00:42:45;;;;;;;;;;;;;;;-1.23;100.00;99756.97;5053143;28;19925;-78
2021/04/12 00:45:19;;;;;;;;;;;;;;;-1.26;100.00;99763.94;5053383;28;19932;-78
2021/04/12 00:47:52;;;;;;;;;;;;;;;-1.41;100.00;99758.19;5053559;28;20079;-78
2021/04/12 00:50:21;;;;;;;;;;;;;;;-1.42;100.00;99753.84;5053609;28;20015;-78
2021/04/12 00:53:13;;;;;;;;;;;;;;;-1.48;100.00;99761.41;5053388;28;19925;-78
2021/04/12 00:56:00;;;;;;;;;;;;;;;-1.46;100.00;99756.44;5052899;28;19924;-78
2021/04/12 00:58:29;;;;;;;;;;;;;;;-1.35;100.00;99757.69;5085036;28;20391;-78
2021/04/12 01:01:02;;;;;;;;;;;;;;;-1.48;100.00;99755.94;5052064;28;19932;-78
2021/04/12 01:03:34;;;;;;;;;;;;;;;-1.36;100.00;99758.78;5085464;28;19975;-78
2021/04/12 01:06:09;;;;;;;;;;;;;;;-1.42;100.00;99760.09;5053053;28;19925;-78
2021/04/12 01:08:54;;;;;;;;;;;;;;;-1.53;100.00;99758.06;5053357;28;19925;-78
2021/04/12 01:11:21;;;;;;;;;;;;;;;-1.46;100.00;99758.34;5052724;28;20116;-78
2021/04/12 01:14:06;;;;;;;;;;;;;;;-1.59;100.00;99754.69;5053350;28;19932;-78
2021/04/12 01:16:56;;;;;;;;;;;;;;;-1.71;100.00;99751.03;5039246;28;19932;-78
2021/04/12 01:19:38;;;;;;;;;;;;;;;-1.70;100.00;99758.09;5030584;28;19925;-78
2021/04/12 01:22:23;;;;;;;;;;;;;;;-1.67;100.00;99747.31;5030892;28;19925;-78
2021/04/12 01:25:08;;;;;;;;;;;;;;;-1.33;100.00;99757.34;5030641;28;19925;-78
2021/04/12 01:28:02;;;;;;;;;;;;;;;-1.63;100.00;99752.91;5030739;28;19932;-78
2021/04/12 01:30:40;;;;;;;;;;;;;;;-1.69;100.00;99760.50;5030947;28;20010;-78
2021/04/12 01:33:13;;;;;;;;;;;;;;;-1.60;100.00;99752.25;5030620;28;19948;-78
2021/04/12 01:35:54;;;;;;;;;;;;;;;-1.68;100.00;99750.38;5030896;28;19994;-78
2021/04/12 01:38:39;;;;;;;;;;;;;;;-1.82;100.00;99751.34;5030642;28;19929;-78
2021/04/12 01:41:09;;;;;;;;;;;;;;;-1.63;100.00;99753.72;5013914;28;19960;-78
2021/04/12 01:43:54;;;;;;;;;;;;;;;-1.85;100.00;99752.00;5030492;28;19925;-78
2021/04/12 01:46:30;;;;;;;;;;;;;;;-1.88;100.00;99754.59;5030657;28;19964;-78
2021/04/12 01:49:15;;;;;;;;;;;;;;;-1.89;100.00;99751.06;5030745;28;19926;-78
2021/04/12 01:51:54;;;;;;;;;;;;;;;-1.92;100.00;99750.88;5030527;28;20436;-78
2021/04/12 01:54:41;;;;;;;;;;;;;;;-2.03;100.00;99758.63;5030263;28;19933;-78
2021/04/12 01:57:23;;;;;;;;;;;;;;;-1.73;100.00;99756.81;5026382;28;19982;-78
2021/04/12 02:00:12;;;;;;;;;;;;;;;-1.89;100.00;99753.78;5052795;28;19970;-78
2021/04/12 02:02:57;;;;;;;;;;;;;;;-2.05;100.00;99757.38;5052607;28;19968;-78
2021/04/12 02:05:24;;;;;;;;;;;;;;;-2.08;100.00;99747.06;5051526;28;19925;-78
2021/04/12 02:08:14;;;;;;;;;;;;;;;-2.21;100.00;99754.31;5052621;28;19925;-78
2021/04/12 02:10:48;;;;;;;;;;;;;;;-2.17;100.00;99755.28;5055271;28;19925;-78
2021/04/12 02:13:26;;;;;;;;;;;;;;;-2.24;100.00;99749.47;5055346;28;19928;-78
2021/04/12 02:16:12;;;;;;;;;;;;;;;-2.34;100.00;99757.22;5056304;28;19932;-78
2021/04/12 02:18:39;;;;;;;;;;;;;;;-2.48;100.00;99754.63;5088547;28;19971;-78
2021/04/12 02:21:24;;;;;;;;;;;;;;;-2.56;100.00;99749.94;5038182;28;20023;-78
2021/04/12 02:24:06;;;;;;;;;;;;;;;-2.55;100.00;99759.78;5055928;28;19932;-78
2021/04/12 02:26:49;;;;;;;;;;;;;;;-2.55;100.00;99757.06;5056151;28;19970;-78
2021/04/12 02:29:24;;;;;;;;;;;;;;;-2.62;100.00;99764.91;5056279;28;20331;-78
2021/04/12 02:32:11;;;;;;;;;;;;;;;-2.61;100.00;99763.00;5042243;28;19931;-78
2021/04/12 02:34:56;;;;;;;;;;;;;;;-2.51;100.00;99768.97;5055994;28;20380;-78
2021/04/12 02:37:46;;;;;;;;;;;;;;;-2.50;100.00;99762.34;5056026;28;20430;-78
2021/04/12 02:40:25;;;;;;;;;;;;;;;-2.50;100.00;99761.56;5033371;28;19935;-78
2021/04/12 02:42:59;;;;;;;;;;;;;;;-2.40;100.00;99770.25;5033615;28;19936;-78
2021/04/12 02:45:40;;;;;;;;;;;;;;;-2.37;100.00;99771.53;5033523;28;19960;-78
2021/04/12 02:48:26;;;;;;;;;;;;;;;-2.06;100.00;99777.66;5017255;28;19925;-77
2021/04/12 02:51:18;;;;;;;;;;;;;;;-2.05;100.00;99777.34;5031842;28;19925;-78
2021/04/12 02:54:24;;;;;;;;;;;;;;;-2.42;100.00;99777.16;5030335;28;19925;-79
2021/04/12 02:57:11;;;;;;;;;;;;;;;-2.55;100.00;99776.22;4974357;28;19953;-78
2021/04/12 02:59:37;;;;;;;;;;;;;;;-2.58;100.00;99771.38;4989955;28;19949;-78
2021/04/12 03:02:10;;;;;;;;;;;;;;;-2.51;100.00;99770.88;4974384;28;19933;-78
2021/04/12 03:04:55;;;;;;;;;;;;;;;-2.34;100.00;99782.66;4982154;28;19930;-79
2021/04/12 03:07:23;;;;;;;;;;;;;;;-2.19;100.00;99773.97;4973976;28;19926;-78
2021/04/12 03:10:09;;;;;;;;;;;;;;;-2.49;100.00;99774.94;4974515;28;19936;-78
2021/04/12 03:12:38;;;;;;;;;;;;;;;-2.77;100.00;99776.31;4977529;28;19933;-78
2021/04/12 03:15:22;;;;;;;;;;;;;;;-2.77;100.00;99772.81;4974378;28;19926;-78
2021/04/12 03:18:07;;;;;;;;;;;;;;;-2.79;100.00;99780.50;5003098;28;20028;-78
2021/04/12 03:20:34;;;;;;;;;;;;;;;-2.85;100.00;99782.59;4996635;28;19929;-78
2021/04/12 03:23:13;;;;;;;;;;;;;;;-2.94;100.00;99789.94;5012749;28;19925;-78
2021/04/12 03:25:58;;;;;;;;;;;;;;;-3.03;100.00;99791.84;5012969;28;20386;-78
2021/04/12 03:28:43;;;;;;;;;;;;;;;-3.13;100.00;99794.88;5048182;28;20007;-78
2021/04/12 03:31:28;;;;;;;;;;;;;;;-3.16;100.00;99803.72;5053871;28;20277;-78
2021/04/12 03:34:01;;;;;;;;;;;;;;;-3.28;100.00;99799.94;5054024;28;19994;-78
2021/04/12 03:36:46;;;;;;;;;;;;;;;-3.11;100.00;99798.13;5041427;28;20241;-78
2021/04/12 03:39:15;;;;;;;;;;;;;;;-3.01;100.00;99799.72;5087137;28;20268;-78
2021/04/12 03:41:59;;;;;;;;;;;;;;;-2.97;100.00;99801.50;5054886;28;19929;-78
2021/04/12 03:44:46;;;;;;;;;;;;;;;-3.10;100.00;99799.72;5053495;28;20070;-78
2021/04/12 03:47:31;;;;;;;;;;;;;;;-3.00;100.00;99804.88;5050863;28;19959;-78
2021/04/12 03:50:10;;;;;;;;;;;;;;;-3.05;100.00;99799.59;5054642;28;20514;-78
2021/04/12 03:52:57;;;;;;;;;;;;;;;-3.43;100.00;99803.91;5086843;28;20374;-78
2021/04/12 03:55:32;;;;;;;;;;;;;;;-3.39;100.00;99810.34;5053173;28;19931;-78
2021/04/12 03:58:10;;;;;;;;;;;;;;;-3.27;100.00;99807.06;5054327;28;20356;-78
2021/04/12 04:00:55;;;;;;;;;;;;;;;-3.19;100.00;99814.47;5054527;28;19925;-78
2021/04/12 04:03:25;;;;;;;;;;;;;;;-3.20;100.00;99807.41;5054423;28;19963;-78
2021/04/12 04:06:15;;;;;;;;;;;;;;;-2.97;100.00;99809.72;5054419;28;19929;-78
2021/04/12 04:09:00;;;;;;;;;;;;;;;-3.12;100.00;99815.63;5052770;28;20291;-78
2021/04/12 04:11:43;;;;;;;;;;;;;;;-3.21;100.00;99816.72;5054350;28;19925;-78
2021/04/12 04:14:28;;;;;;;;;;;;;;;-3.34;100.00;99815.69;5040989;28;19925;-78
2021/04/12 04:17:10;;;;;;;;;;;;;;;-3.29;100.00;99812.84;5054113;28;19936;-78
2021/04/12 04:19:52;;;;;;;;;;;;;;;-3.42;100.00;99810.19;5053876;28;19925;-78
2021/04/12 04:22:40;;;;;;;;;;;;;;;-3.61;100.00;99813.13;5052892;28;19932;-78
2021/04/12 04:25:07;;;;;;;;;;;;;;;-3.68;100.00;99810.03;5068986;28;19924;-78
2021/04/12 04:27:40;;;;;;;;;;;;;;;-3.55;100.00;99814.63;5053373;28;19929;-78
2021/04/12 04:30:19;;;;;;;;;;;;;;;-3.53;100.00;99814.31;5052256;28;20530;-78
2021/04/12 04:32:52;;;;;;;;;;;;;;;-3.50;100.00;99824.59;5052791;28;19924;-78
2021/04/12 04:35:37;;;;;;;;;;;;;;;-3.48;100.00;99820.44;5053010;28;19925;-78
2021/04/12 04:38:34;;;;;;;;;;;;;;;-3.49;100.00;99827.03;5042019;28;19925;-78
2021/04/12 04:41:20;;;;;;;;;;;;;;;-3.47;100.00;99829.44;5053480;28;19944;-78
2021/04/12 04:44:05;;;;;;;;;;;;;;;-3.26;100.00;99834.06;5085916;28;19929;-78
2021/04/12 04:46:50;;;;;;;;;;;;;;;-3.25;100.00;99835.66;5042041;28;20309;-78
2021/04/12 04:49:32;;;;;;;;;;;;;;;-3.52;100.00;99843.22;5085412;28;19944;-78
2021/04/12 04:52:14;;;;;;;;;;;;;;;-3.67;100.00;99833.50;5036143;28;20258;-78
2021/04/12 04:54:40;;;;;;;;;;;;;;;-3.83;100.00;99843.19;5052108;28;19924;-78
2021/04/12 04:57:14;;;;;;;;;;;;;;;-3.59;100.00;99843.69;5052238;28;20355;-78
2021/04/12 04:59:59;;;;;;;;;;;;;;;-3.56;100.00;99843.06;5052031;28;19924;-78
2021/04/12 05:02:45;;;;;;;;;;;;;;;-3.37;100.00;99848.28;5068801;28;19978;-78
2021/04/12 05:05:23;;;;;;;;;;;;;;;-3.37;100.00;99851.84;5053238;28;19925;-78
2021/04/12 05:07:53;;;;;;;;;;;;;;;-3.41;100.00;99853.59;5053400;28;19929;-78
2021/04/12 05:10:38;;;;;;;;;;;;;;;-3.40;100.00;99863.41;5085292;28;20102;-78
2021/04/12 05:13:31;;;;;;;;;;;;;;;-3.37;100.00;99862.78;5053391;28;19924;-78
2021/04/12 05:16:16;;;;;;;;;;;;;;;-3.30;100.00;99863.13;5041951;28;20367;-78
2021/04/12 05:18:50;;;;;;;;;;;;;;;-3.12;100.00;99869.50;5052952;28;19932;-78
2021/04/12 05:21:36;;;;;;;;;;;;;;;-2.82;100.00;99874.97;5053167;28;19925;-78
2021/04/12 05:24:21;;;;;;;;;;;;;;;-2.55;100.00;99887.59;5053139;28;19990;-78
2021/04/12 05:26:58;;;;;;;;;;;;;;;-2.54;100.00;99881.78;5053133;28;20403;-78
2021/04/12 05:29:42;;;;;;;;;;;;;;;-2.49;100.00;99886.31;5040640;28;19943;-78
2021/04/12 05:32:15;;;;;;;;;;;;;;;-2.23;100.00;99890.69;5048760;28;19924;-78
2021/04/12 05:34:54;;;;;;;;;;;;;;;-2.22;100.00;99889.59;5050845;28;20027;-78
2021/04/12 05:37:40;;;;;;;;;;;;;;;-2.51;100.00;99886.63;5049721;28;19940;-78
2021/04/12 05:40:13;;;;;;;;;;;;;;;-2.90;100.00;99900.34;5056842;28;20023;-78
2021/04/12 05:42:40;;;;;;;;;;;;;;;-3.07;100.00;99894.78;5082157;28;19967;-78
2021/04/12 05:45:07;;;;;;;;;;;;;;;-3.04;100.00;99905.09;5042088;28;19932;-77
2021/04/12 05:47:51;;;;;;;;;;;;;;;-2.93;100.00;99905.63;5085449;28;19933;-77
2021/04/12 05:50:36;;;;;;;;;;;;;;;-2.62;100.00;99918.13;5056988;28;19929;-78
2021/04/12 05:53:08;;;;;;;;;;;;;;;-2.11;100.00;99920.22;5087783;28;19925;-79
2021/04/12 05:55:43;;;;;;;;;;;;;;;-2.18;100.00;99915.19;5056711;28;19929;-78
2021/04/12 05:58:37;;;;;;;;;;;;;;;-2.05;100.00;99927.97;5053803;28;19936;-78
2021/04/12 06:01:16;;;;;;;;;;;;;;;-2.07;100.00;99930.22;5035119;28;19928;-79
2021/04/12 06:03:45;;;;;;;;;;;;;;;-1.94;100.00;99931.19;5051504;28;20046;-78
2021/04/12 06:06:31;;;;;;;;;;;;;;;-1.92;100.00;99932.50;5051057;28;19936;-78
2021/04/12 06:09:16;;;;;;;;;;;;;;;-1.98;100.00;99939.25;5042579;28;19925;-78
2021/04/12 06:11:44;;;;;;;;;;;;;;;-1.88;100.00;99944.41;5052271;28;20277;-78
2021/04/12 06:14:29;;;;;;;;;;;;;;;-1.89;100.00;99948.28;5051245;28;19928;-78
2021/04/12 06:17:14;;;;;;;;;;;;;;;-1.95;100.00;99952.31;5052327;28;19924;-78
2021/04/12 06:19:41;;;;;;;;;;;;;;;-1.89;100.00;99955.69;5084378;28;19932;-78
2021/04/12 06:22:24;;;;;;;;;;;;;;;-1.90;100.00;99957.63;5053046;28;19925;-78
2021/04/12 06:25:10;;;;;;;;;;;;;;;-1.85;100.00;99956.69;5054238;28;19931;-78
2021/04/12 06:27:50;;;;;;;;;;;;;;;-1.62;100.00;99963.59;5042815;28;19924;-79
2021/04/12 06:30:35;;;;;;;;;;;;;;;-1.48;100.00;99964.25;5055247;28;20414;-79
2021/04/12 06:33:19;;;;;;;;;;;;;;;-1.40;100.00;99965.38;5056024;28;19928;-78
2021/04/12 06:36:01;;;;;;;;;;;;;;;-1.25;100.00;99968.44;5055774;28;19925;-79
2021/04/12 06:38:36;;;;;;;;;;;;;;;-1.15;100.00;99970.06;5059422;28;19932;-78
2021/04/12 06:41:15;;;;;;;;;;;;;;;-1.36;100.00;99966.38;5071327;28;19924;-78
2021/04/12 06:43:42;;;;;;;;;;;;;;;-0.98;100.00;99978.25;5071470;28;19929;-78
2021/04/12 06:46:25;;;;;;;;;;;;;;;-0.90;100.00;99974.69;5071595;28;19951;-78
2021/04/12 06:49:01;;;;;;;;;;;;;;;-0.84;100.00;99974.19;5064969;28;19931;-79
2021/04/12 06:51:39;;;;;;;;;;;;;;;-0.72;100.00;99979.00;5066843;28;19932;-79
2021/04/12 06:54:21;;;;;;;;;;;;;;;-0.59;100.00;99981.53;5060526;28;19925;-78
2021/04/12 06:56:51;;;;;;;;;;;;;;;-0.14;100.00;99984.59;5054548;28;19924;-79
2021/04/12 06:59:36;;;;;;;;;;;;;;;0.53;100.00;99979.78;5055111;28;19932;-79
2021/04/12 07:02:22;;;;;;;;;;;;;;;1.39;100.00;99980.59;5055555;28;19928;-79
2021/04/12 07:05:05;;;;;;;;;;;;;;;1.76;100.00;99979.50;5051432;28;19949;-79
2021/04/12 07:07:55;;;;;;;;;;;;;;;3.01;100.00;99985.75;5055533;28;20067;-79
2021/04/12 07:10:41;;;;;;;;;;;;;;;4.55;100.00;99975.88;5055230;28;20378;-78
2021/04/12 07:13:30;;;;;;;;;;;;;;;5.80;100.00;99975.19;5055002;28;19933;-79
2021/04/12 07:16:13;;;;;;;;;;;;;;;6.22;100.00;99962.03;5042608;28;19925;-79
2021/04/12 07:18:58;;;;;;;;;;;;;;;7.34;100.00;99960.78;5055160;28;19925;-79
2021/04/12 07:21:43;;;;;;;;;;;;;;;8.01;100.00;99959.41;5054978;28;19994;-79
2021/04/12 07:24:31;;;;;;;;;;;;;;;9.03;100.00;99949.78;5086485;28;19932;-79
2021/04/12 07:27:02;;;;;;;;;;;;;;;9.20;100.00;99951.03;5087031;28;19925;-78
2021/04/12 07:29:37;;;;;;;;;;;;;;;9.49;100.00;99954.69;5086812;28;20368;-79
2021/04/12 07:32:23;;;;;;;;;;;;;;;10.00;100.00;99947.59;5054865;28;19928;-79
2021/04/12 07:35:08;;;;;;;;;;;;;;;9.73;100.00;99951.94;5054917;28;19925;-79
2021/04/12 07:37:45;;;;;;;;;;;;;;;10.07;100.00;99949.63;5054915;28;19935;-82
2021/04/12 07:40:30;;;;;;;;;;;;;;;10.60;100.00;99948.34;5055178;28;19998;-82
2021/04/12 07:43:05;;;;;;;;;;;;;;;10.64;100.00;99937.97;5060219;28;19925;-83
2021/04/12 07:45:35;;;;;;;;;;;;;;;10.61;100.00;99940.78;5087077;28;19925;-83
2021/04/12 07:48:17;;;;;;;;;;;;;;;11.18;100.00;99938.59;5034718;28;19931;-83
2021/04/12 07:51:03;;;;;;;;;;;;;;;11.31;100.00;99932.13;5054894;28;19925;-83
2021/04/12 07:53:48;;;;;;;;;;;;;;;11.39;100.00;99930.88;5053887;28;19932;-83
2021/04/12 07:56:34;;;;;;;;;;;;;;;11.20;100.00;99931.38;5087135;28;19925;-83
2021/04/12 07:59:33;;;;;;;;;;;;;;;11.49;100.00;99934.81;5070235;28;19928;-83
2021/04/12 08:02:17;;;;;;;;;;;;;;;11.50;100.00;99934.41;5032405;28;19948;-83
2021/04/12 08:05:07;;;;;;;;;;;;;;;10.43;100.00;99940.81;5032288;28;19925;-82
2021/04/12 08:08:06;;;;;;;;;;;;;;;8.66;100.00;99951.97;5032384;28;19929;-82
2021/04/12 08:10:34;;;;;;;;;;;;;;;9.65;100.00;99952.34;5032826;28;19929;-82
2021/04/12 08:13:10;;;;;;;;;;;;;;;10.03;100.00;99951.56;5037753;28;20404;-81
2021/04/12 08:15:47;;;;;;;;;;;;;;;10.48;100.00;99956.38;5029757;28;20320;-81
2021/04/12 08:18:28;;;;;;;;;;;;;;;10.46;100.00;99950.38;5032571;28;19929;-81
2021/04/12 08:21:04;;;;;;;;;;;;;;;10.53;100.00;99947.56;5041081;28;19925;-80
2021/04/12 08:23:39;;;;;;;;;;;;;;;9.94;100.00;99948.38;5040651;28;20014;-82
2021/04/12 08:26:24;;;;;;;;;;;;;;;10.21;100.00;99955.19;5044235;28;20288;-79
2021/04/12 08:29:16;;;;;;;;;;;;;;;10.94;100.00;99955.06;5021440;28;19929;-81
2021/04/12 08:31:52;;;;;;;;;;;;;;;10.91;100.00;99946.66;5028440;28;20346;-80
2021/04/12 08:34:38;;;;;;;;;;;;;;;11.44;100.00;99952.84;5029234;28;19976;-77
2021/04/12 08:37:37;;;;;;;;;;;;;;;11.59;100.00;99959.94;5018301;28;20378;-80
2021/04/12 08:40:13;;;;;;;;;;;;;;;11.69;100.00;99953.50;5044867;28;20288;-80
2021/04/12 08:42:48;;;;;;;;;;;;;;;10.59;100.00;99957.13;5053527;28;19925;-83
2021/04/12 08:45:34;;;;;;;;;;;;;;;9.39;100.00;99961.84;5069869;28;19925;-80
2021/04/12 08:48:12;;;;;;;;;;;;;;;7.45;100.00;99975.59;5038702;28;20015;-87
2021/04/12 08:51:07;;;;;;;;;;;;;;;6.68;100.00;99986.53;5032812;28;19933;-84
2021/04/12 08:53:53;;;;;;;;;;;;;;;6.74;100.00;99987.81;5065146;28;19947;-87
2021/04/12 08:56:36;;;;;;;;;;;;;;;6.83;100.00;99995.88;5016324;28;19925;-84
2021/04/12 08:59:15;;;;;;;;;;;;;;;6.20;100.00;99994.91;5015914;28;19932;-85
2021/04/12 09:01:45;;;;;;;;;;;;;;;5.90;100.00;100005.91;5016566;28;19929;-86
2021/04/12 09:04:40;;;;;;;;;;;;;;;5.56;100.00;100013.19;5031351;28;19936;-86
2021/04/12 09:07:35;;;;;;;;;;;;;;;5.63;100.00;100010.53;5032958;28;19929;-85
2021/04/12 09:10:20;;;;;;;;;;;;;;;5.41;100.00;100025.16;5034001;28;19928;-84
2021/04/12 09:12:52;;;;;;;;;;;;;;;5.25;100.00;100030.00;5033079;28;19929;-85
2021/04/12 09:15:38;;;;;;;;;;;;;;;5.31;100.00;100025.78;5045594;28;19925;-83
2021/04/12 09:18:14;;;;;;;;;;;;;;;5.07;100.00;100039.88;5072866;28;20015;-77
2021/04/12 09:25:07;;;;;;;;;;;;;;;4.84;100.00;100043.75;5084944;28;19967;-77
2021/04/12 09:27:41;;;;;;;;;;;;;;;4.66;100.00;100051.66;5051931;28;20079;-87
2021/04/12 09:30:14;;;;;;;;;;;;;;;4.88;100.00;100059.28;5049006;28;20015;-81
2021/04/12 09:32:44;;;;;;;;;;;;;;;5.00;100.00;100048.06;5062733;28;19947;-80
2021/04/12 09:35:23;;;;;;;;;;;;;;;5.01;100.00;100046.88;5047062;28;19932;-80
2021/04/12 09:37:53;;;;;;;;;;;;;;;5.01;100.00;100057.97;5044164;28;20035;-81
2021/04/12 09:40:22;;;;;;;;;;;;;;;4.81;100.00;100052.78;5048690;28;19925;-81
2021/04/12 09:42:58;;;;;;;;;;;;;;;4.63;100.00;100063.44;5049113;28;20304;-85
2021/04/12 09:45:27;;;;;;;;;;;;;;;4.58;100.00;100066.50;5072727;28;19976;-87
2021/04/12 09:48:00;;;;;;;;;;;;;;;4.79;100.00;100063.41;5049019;28;19963;-87
2021/04/12 09:50:30;;;;;;;;;;;;;;;5.18;100.00;100070.63;5037689;28;20292;-87
2021/04/12 09:53:03;;;;;;;;;;;;;;;4.88;100.00;100069.53;5038620;28;20460;-82
2021/04/12 09:55:53;;;;;;;;;;;;;;;4.84;100.00;100074.19;5040327;28;20490;-85
2021/04/12 09:58:32;;;;;;;;;;;;;;;4.78;100.00;100070.91;5070667;28;19929;-89
2021/04/12 10:01:07;;;;;;;;;;;;;;;4.72;100.00;100077.91;5034184;28;19925;-91
2021/04/12 10:03:40;;;;;;;;;;;;;;;4.72;100.00;100075.13;5000699;28;19932;-82
2021/04/12 10:06:08;;;;;;;;;;;;;;;4.72;100.00;100083.44;5050003;28;19936;-87
2021/04/12 10:09:08;;;;;;;;;;;;;;;4.98;100.00;100080.84;5049977;28;19932;-86
2021/04/12 10:11:45;;;;;;;;;;;;;;;5.48;100.00;100088.28;5061931;28;19936;-84
2021/04/12 10:14:16;;;;;;;;;;;;;;;5.22;100.00;100074.25;5062188;28;20409;-90
2021/04/12 10:16:55;;;;;;;;;;;;;;;5.14;100.00;100078.84;5035330;28;19950;-86
2021/04/12 10:19:30;;;;;;;;;;;;;;;5.16;100.00;100086.78;5049765;28;19970;-88
2021/04/12 10:22:03;;;;;;;;;;;;;;;5.41;100.00;100093.66;5032367;28;19925;-82
2021/04/12 10:24:42;;;;;;;;;;;;;;;4.98;100.00;100086.38;5049269;28;19925;-83
2021/04/12 10:27:42;;;;;;;;;;;;;;;4.79;100.00;100091.09;5051358;28;19976;-82
2021/04/12 10:30:15;;;;;;;;;;;;;;;4.77;100.00;100088.69;5064447;28;20365;-81
2021/04/12 10:32:47;;;;;;;;;;;;;;;4.93;100.00;100092.22;5046379;28;19928;-78
2021/04/12 10:35:34;;;;;;;;;;;;;;;4.98;100.00;100091.16;5056617;28;20355;-81
2021/04/12 10:38:10;;;;;;;;;;;;;;;5.14;100.00;100094.66;5048595;28;19925;-81
2021/04/12 10:40:55;;;;;;;;;;;;;;;5.22;100.00;100096.44;5056039;28;19924;-81
2021/04/12 10:43:45;;;;;;;;;;;;;;;5.24;100.00;100105.97;5056607;28;19925;-81
2021/04/12 10:46:27;;;;;;;;;;;;;;;5.23;100.00;100104.38;5071879;28;20023;-81
2021/04/12 10:48:56;;;;;;;;;;;;;;;5.21;100.00;100106.69;5035292;28;20025;-81
2021/04/12 10:51:39;;;;;;;;;;;;;;;5.22;100.00;100104.75;5046554;28;19925;-81
2021/04/12 10:54:35;;;;;;;;;;;;;;;5.33;100.00;100092.69;5081729;28;19925;-81
2021/04/12 10:57:20;;;;;;;;;;;;;;;5.48;100.00;100091.81;5056134;28;19925;-81
2021/04/12 10:59:46;;;;;;;;;;;;;;;5.65;100.00;100095.34;5056151;28;19925;-81
2021/04/12 11:02:32;;;;;;;;;;;;;;;5.51;100.00;100099.41;5052201;28;19933;-80
2021/04/12 11:05:02;;;;;;;;;;;;;;;5.42;100.00;100096.06;5033757;28;20353;-82
2021/04/12 11:07:41;;;;;;;;;;;;;;;5.20;100.00;100099.56;5052587;28;19929;-80
2021/04/12 11:10:26;;;;;;;;;;;;;;;5.22;100.00;100097.25;5050657;28;19929;-81
2021/04/12 11:13:05;;;;;;;;;;;;;;;5.63;100.00;100090.94;5084943;28;19925;-81
2021/04/12 11:15:50;;;;;;;;;;;;;;;5.80;100.00;100089.69;5052991;28;19924;-81
2021/04/12 11:21:44;;;;;;;;;;;;;;;5.87;100.00;100083.50;5020320;28;19932;-81
2021/04/12 11:24:29;;;;;;;;;;;;;;;5.84;100.00;100087.84;5055214;28;19925;-81
2021/04/12 11:27:14;;;;;;;;;;;;;;;6.44;100.00;100086.09;5055679;28;19925;-81
2021/04/12 11:29:42;;;;;;;;;;;;;;;6.41;100.00;100092.41;5055562;28;19925;-80
2021/04/12 11:32:15;;;;;;;;;;;;;;;6.06;100.00;100100.13;5063722;28;19929;-85
2021/04/12 11:34:45;;;;;;;;;;;;;;;6.22;100.00;100084.16;5070473;28;20038;-83
2021/04/12 11:37:21;;;;;;;;;;;;;;;6.64;100.00;100090.41;5069382;28;19935;-85
2021/04/12 11:40:00;;;;;;;;;;;;;;;6.25;100.00;100089.78;5088151;28;19948;-84
2021/04/12 11:42:31;;;;;;;;;;;;;;;6.38;100.00;100109.81;5050096;28;19925;-83
2021/04/12 11:45:26;;;;;;;;;;;;;;;6.52;100.00;100108.09;5055500;28;19925;-83
2021/04/12 11:48:00;;;;;;;;;;;;;;;6.37;100.00;100113.75;5054187;28;19928;-82
2021/04/12 11:50:33;;;;;;;;;;;;;;;5.85;100.00;100116.34;5096062;28;20379;-82
2021/04/12 11:53:12;;;;;;;;;;;;;;;5.91;100.00;100114.91;5066147;28;19948;-82
2021/04/12 11:55:46;;;;;;;;;;;;;;;6.01;100.00;100117.06;5037366;28;20425;-82
2021/04/12 11:58:28;;;;;;;;;;;;;;;5.92;100.00;100113.72;5071620;28;19929;-83
2021/04/12 12:01:06;;;;;;;;;;;;;;;5.91;100.00;100106.59;5070372;28;19925;-83
2021/04/12 12:03:48;;;;;;;;;;;;;;;5.77;100.00;100109.84;5055943;28;19928;-83
2021/04/12 12:06:24;;;;;;;;;;;;;;;5.72;100.00;100109.34;5055155;28;20013;-81
2021/04/12 12:08:57;;;;;;;;;;;;;;;5.95;100.00;100107.44;5023701;28;20368;-81
2021/04/12 12:11:31;;;;;;;;;;;;;;;6.30;100.00;100108.88;5053819;28;20300;-82
2021/04/12 12:14:05;;;;;;;;;;;;;;;6.89;100.00;100103.50;5054749;28;19932;-82
2021/04/12 12:16:37;;;;;;;;;;;;;;;7.18;100.00;100099.97;5040836;28;19925;-82
2021/04/12 12:19:04;;;;;;;;;;;;;;;7.28;100.00;100098.50;5073698;28;19924;-82
2021/04/12 12:21:51;;;;;;;;;;;;;;;6.95;100.00;100101.22;5070523;28;19931;-82
2021/04/12 12:24:37;;;;;;;;;;;;;;;6.68;100.00;100107.94;5060175;28;19973;-85
2021/04/12 12:27:08;;;;;;;;;;;;;;;6.33;100.00;100124.00;5053806;28;19929;-79
2021/04/12 12:29:54;;;;;;;;;;;;;;;6.05;100.00;100126.25;5052426;28;19925;-79
2021/04/12 12:32:28;;;;;;;;;;;;;;;6.11;100.00;100122.00;5058068;28;19932;-83
2021/04/12 12:35:01;;;;;;;;;;;;;;;6.03;100.00;100111.97;5060400;28;19960;-81
2021/04/12 12:37:49;;;;;;;;;;;;;;;6.32;100.00;100116.84;5092575;28;19924;-84
2021/04/12 12:40:18;;;;;;;;;;;;;;;6.51;100.00;100103.69;5053794;28;19929;-83
2021/04/12 12:42:48;;;;;;;;;;;;;;;6.56;100.00;100105.34;5058227;28;20019;-83
2021/04/12 12:45:16;;;;;;;;;;;;;;;6.68;100.00;100105.19;5076617;28;20384;-83
2021/04/12 12:47:48;;;;;;;;;;;;;;;6.83;100.00;100110.56;5050813;28;19933;-83
2021/04/12 12:50:29;;;;;;;;;;;;;;;7.10;100.00;100106.59;5053050;28;19925;-83
2021/04/12 12:52:58;;;;;;;;;;;;;;;7.11;100.00;100105.44;5069596;28;20020;-84
2021/04/12 12:55:26;;;;;;;;;;;;;;;6.61;100.00;100102.25;5068392;28;20296;-83
2021/04/12 12:57:54;;;;;;;;;;;;;;;6.32;100.00;100116.84;5041211;28;19929;-83
2021/04/12 13:00:26;;;;;;;;;;;;;;;6.07;100.00;100121.97;5036123;28;20408;-83
2021/04/12 13:02:52;;;;;;;;;;;;;;;5.87;100.00;100123.16;5069341;28;19924;-83
2021/04/12 13:05:24;;;;;;;;;;;;;;;5.89;100.00;100120.00;5052854;28;19928;-83
2021/04/12 13:07:53;;;;;;;;;;;;;;;6.10;100.00;100120.41;5052987;28;19925;-83
2021/04/12 13:10:26;;;;;;;;;;;;;;;6.32;100.00;100123.19;5052549;28;19925;-83
2021/04/12 13:12:53;;;;;;;;;;;;;;;6.78;100.00;100119.22;5036300;28;20019;-84
2021/04/12 13:15:25;;;;;;;;;;;;;;;6.75;100.00;100110.84;5052556;28;19924;-83
2021/04/12 13:18:05;;;;;;;;;;;;;;;6.38;100.00;100109.81;5052653;28;19925;-83
2021/04/12 13:20:39;;;;;;;;;;;;;;;6.60;100.00;100118.16;5069059;28;19968;-83
2021/04/12 13:23:13;;;;;;;;;;;;;;;6.98;100.00;100117.16;5052781;28;19932;-84
2021/04/12 13:25:44;;;;;;;;;;;;;;;7.22;100.00;100108.38;5085794;28;19979;-84
2021/04/12 13:28:23;;;;;;;;;;;;;;;7.36;100.00;100100.22;5052653;28;19924;-84
2021/04/12 13:31:00;;;;;;;;;;;;;;;7.48;100.00;100099.97;5053806;28;20007;-84
2021/04/12 13:33:38;;;;;;;;;;;;;;;7.62;100.00;100102.91;5053659;28;19978;-84
2021/04/12 13:36:08;;;;;;;;;;;;;;;8.28;100.00;100108.47;5052431;28;20268;-84
2021/04/12 13:38:37;;;;;;;;;;;;;;;8.52;100.00;100104.28;5035969;28;20280;-84
2021/04/12 13:41:08;;;;;;;;;;;;;;;8.46;100.00;100112.22;5051934;28;20395;-84
2021/04/12 13:43:36;;;;;;;;;;;;;;;8.53;100.00;100106.69;5069220;28;19956;-84
2021/04/12 13:46:12;;;;;;;;;;;;;;;8.69;100.00;100101.63;5052336;28;20339;-84
2021/04/12 13:48:41;;;;;;;;;;;;;;;8.26;100.00;100104.44;5052895;28;19932;-83